Time;durP1;ratioP1;P1;durP2;ratioP2;P2;SDS_P1;SDS_P2;PMS_P1;PMS_P2;Temp;Humidity;BMP_temperature;BMP_pressure;BME280_temperature;BME280_humidity;BME280_pressure;Samples;Min_cycle;Max_cycle;Signal;HPM_P1;HPM_P2
2022/05/17 00:02:12;;;;;;;;;;;;;;;;;;5059921;28;19912;-25
2022/05/17 00:07:31;;;;;;;;;;;;;;;;;;5059720;28;20294;-26
2022/05/17 00:09:58;;;;;;;;;;;;;;;;;;5058563;28;19924;-25
2022/05/17 00:12:25;;;;;;;;;;;;;;;;;;5058748;28;19924;-25
2022/05/17 00:14:52;;;;;;;;;;;;;;;;;;5059458;28;20000;-25
2022/05/17 00:17:26;;;;;;;;;;;;;;;;;;5059119;28;19952;-25
2022/05/17 00:19:53;;;;;;;;;;;;;;;;;;5057789;28;20007;-25
2022/05/17 00:22:19;;;;;;;;;;;;;;;;;;5060042;28;19908;-25
2022/05/17 00:24:46;;;;;;;;;;;;;;;;;;5057975;28;19913;-25
2022/05/17 00:27:13;;;;;;;;;;;;;;;;;;5058439;28;19909;-25
2022/05/17 00:29:39;;;;;;;;;;;;;;;;;;5059205;28;19966;-25
2022/05/17 00:32:06;;;;;;;;;;;;;;;;;;5058028;28;19916;-25
2022/05/17 00:34:34;;;;;;;;;;;;;;;;;;5059481;28;19999;-25
2022/05/17 00:37:01;;;;;;;;;;;;;;;;;;5059254;28;20312;-25
2022/05/17 00:39:28;;;;;;;;;;;;;;;;;;5059319;28;19913;-25
2022/05/17 00:41:58;;;;;;;;;;;;;;;;;;5058230;28;19913;-25
2022/05/17 00:44:49;;;;;;;;;;;;;;;;;;5060108;28;20054;-25
2022/05/17 00:47:16;;;;;;;;;;;;;;;;;;5059108;28;19913;-25
2022/05/17 00:49:43;;;;;;;;;;;;;;;;;;5058143;28;19939;-25
2022/05/17 00:52:15;;;;;;;;;;;;;;;;;;5059061;28;19917;-26
2022/05/17 00:54:42;;;;;;;;;;;;;;;;;;5058497;28;19909;-25
2022/05/17 00:57:10;;;;;;;;;;;;;;;;;;5058356;28;20354;-25
2022/05/17 01:02:29;;;;;;;;;;;;;;;;;;5059279;28;19920;-25
2022/05/17 01:04:56;;;;;;;;;;;;;;;;;;5059577;28;19913;-25
2022/05/17 01:07:23;;;;;;;;;;;;;;;;;;5058826;28;19956;-25
2022/05/17 01:09:50;;;;;;;;;;;;;;;;;;5058132;28;19916;-25
2022/05/17 01:12:16;;;;;;;;;;;;;;;;;;5058703;28;19924;-25
2022/05/17 01:15:00;;;;;;;;;;;;;;;;;;5057004;28;20348;-25
2022/05/17 01:17:26;;;;;;;;;;;;;;;;;;5058698;28;19948;-25
2022/05/17 01:19:53;;;;;;;;;;;;;;;;;;5057701;28;19921;-26
2022/05/17 01:22:20;;;;;;;;;;;;;;;;;;5058283;28;20040;-25
2022/05/17 01:24:47;;;;;;;;;;;;;;;;;;5057926;28;19913;-25
2022/05/17 01:27:14;;;;;;;;;;;;;;;;;;5058300;28;19913;-25
2022/05/17 01:29:41;;;;;;;;;;;;;;;;;;5058266;28;20352;-25
2022/05/17 01:32:08;;;;;;;;;;;;;;;;;;5058044;28;19924;-25
2022/05/17 01:34:35;;;;;;;;;;;;;;;;;;5058063;28;20328;-25
2022/05/17 01:37:02;;;;;;;;;;;;;;;;;;5057754;28;19935;-25
2022/05/17 01:39:28;;;;;;;;;;;;;;;;;;5057886;28;19949;-25
2022/05/17 01:41:55;;;;;;;;;;;;;;;;;;5057714;28;19917;-26
2022/05/17 01:44:23;;;;;;;;;;;;;;;;;;5058151;28;19944;-25
2022/05/17 01:46:50;;;;;;;;;;;;;;;;;;5056418;28;19908;-26
2022/05/17 01:49:16;;;;;;;;;;;;;;;;;;5056385;28;19912;-25
2022/05/17 01:51:43;;;;;;;;;;;;;;;;;;5056576;28;19966;-25
2022/05/17 01:54:09;;;;;;;;;;;;;;;;;;5057203;28;19913;-25
2022/05/17 01:56:37;;;;;;;;;;;;;;;;;;5057397;28;19999;-25
2022/05/17 01:59:03;;;;;;;;;;;;;;;;;;5056760;28;19917;-25
2022/05/17 02:01:30;;;;;;;;;;;;;;;;;;5057240;28;19913;-25
2022/05/17 02:03:57;;;;;;;;;;;;;;;;;;5057383;28;19932;-25
2022/05/17 02:06:24;;;;;;;;;;;;;;;;;;5057723;28;19956;-25
2022/05/17 02:08:51;;;;;;;;;;;;;;;;;;5057011;28;20009;-25
2022/05/17 02:11:18;;;;;;;;;;;;;;;;;;5056709;28;20220;-25
2022/05/17 02:13:45;;;;;;;;;;;;;;;;;;5057462;28;19909;-25
2022/05/17 02:16:12;;;;;;;;;;;;;;;;;;5057294;28;20343;-25
2022/05/17 02:18:39;;;;;;;;;;;;;;;;;;5057305;28;19939;-25
2022/05/17 02:21:06;;;;;;;;;;;;;;;;;;5057085;28;19921;-25
2022/05/17 02:23:33;;;;;;;;;;;;;;;;;;5056026;28;19932;-26
2022/05/17 02:26:00;;;;;;;;;;;;;;;;;;5057729;28;20506;-25
2022/05/17 02:28:26;;;;;;;;;;;;;;;;;;5056169;28;19909;-25
2022/05/17 02:30:53;;;;;;;;;;;;;;;;;;5056881;28;19920;-25
2022/05/17 02:33:19;;;;;;;;;;;;;;;;;;5057065;28;19913;-25
2022/05/17 02:35:46;;;;;;;;;;;;;;;;;;5056816;28;20340;-25
2022/05/17 02:38:13;;;;;;;;;;;;;;;;;;5055907;28;19913;-25
2022/05/17 02:40:40;;;;;;;;;;;;;;;;;;5056933;28;20011;-25
2022/05/17 02:43:07;;;;;;;;;;;;;;;;;;5055808;28;19919;-25
2022/05/17 02:45:34;;;;;;;;;;;;;;;;;;5057222;28;19909;-25
2022/05/17 02:48:01;;;;;;;;;;;;;;;;;;5056676;28;19940;-25
2022/05/17 02:50:28;;;;;;;;;;;;;;;;;;5056639;28;19916;-25
2022/05/17 02:52:54;;;;;;;;;;;;;;;;;;5056489;28;19913;-25
2022/05/17 02:55:21;;;;;;;;;;;;;;;;;;5056939;28;19913;-25
2022/05/17 02:57:48;;;;;;;;;;;;;;;;;;5055887;28;19935;-25
2022/05/17 03:00:17;;;;;;;;;;;;;;;;;;5057156;28;19916;-26
2022/05/17 03:02:44;;;;;;;;;;;;;;;;;;5056266;28;20243;-25
2022/05/17 03:05:11;;;;;;;;;;;;;;;;;;5057103;28;19935;-25
2022/05/17 03:07:38;;;;;;;;;;;;;;;;;;5056440;28;19913;-25
2022/05/17 03:10:05;;;;;;;;;;;;;;;;;;5056264;28;20292;-25
2022/05/17 03:12:32;;;;;;;;;;;;;;;;;;5058774;28;20339;-25
2022/05/17 03:15:00;;;;;;;;;;;;;;;;;;5059242;28;19920;-25
2022/05/17 03:17:27;;;;;;;;;;;;;;;;;;5060808;28;20373;-25
2022/05/17 03:19:54;;;;;;;;;;;;;;;;;;5058905;28;19952;-25
2022/05/17 03:22:20;;;;;;;;;;;;;;;;;;5060281;28;19936;-25
2022/05/17 03:24:47;;;;;;;;;;;;;;;;;;5059048;28;19944;-25
2022/05/17 03:27:14;;;;;;;;;;;;;;;;;;5060490;28;19913;-25
2022/05/17 03:29:41;;;;;;;;;;;;;;;;;;5060062;28;19952;-25
2022/05/17 03:32:08;;;;;;;;;;;;;;;;;;5059026;28;20347;-25
2022/05/17 03:34:35;;;;;;;;;;;;;;;;;;5058695;28;19913;-25
2022/05/17 03:37:02;;;;;;;;;;;;;;;;;;5059478;28;19959;-25
2022/05/17 03:39:29;;;;;;;;;;;;;;;;;;5059871;28;20255;-25
2022/05/17 03:41:56;;;;;;;;;;;;;;;;;;5059422;28;19929;-25
2022/05/17 03:44:24;;;;;;;;;;;;;;;;;;5059474;28;19913;-25
2022/05/17 03:46:51;;;;;;;;;;;;;;;;;;5058730;28;19924;-25
2022/05/17 03:49:18;;;;;;;;;;;;;;;;;;5059747;28;19912;-24
2022/05/17 03:51:45;;;;;;;;;;;;;;;;;;5059425;28;19940;-26
2022/05/17 03:54:14;;;;;;;;;;;;;;;;;;5059354;28;19919;-26
2022/05/17 03:56:42;;;;;;;;;;;;;;;;;;5059479;28;20371;-25
2022/05/17 03:59:09;;;;;;;;;;;;;;;;;;5058987;28;19912;-26
2022/05/17 04:01:36;;;;;;;;;;;;;;;;;;5057689;28;20011;-26
2022/05/17 04:04:03;;;;;;;;;;;;;;;;;;5059191;28;20254;-25
2022/05/17 04:06:31;;;;;;;;;;;;;;;;;;5059447;28;19924;-26
2022/05/17 04:08:58;;;;;;;;;;;;;;;;;;5058095;28;19978;-25
2022/05/17 04:11:24;;;;;;;;;;;;;;;;;;5058693;28;20075;-27
2022/05/17 04:13:51;;;;;;;;;;;;;;;;;;5057058;28;20239;-26
2022/05/17 04:16:19;;;;;;;;;;;;;;;;;;5058840;28;20011;-26
2022/05/17 04:18:48;;;;;;;;;;;;;;;;;;5058199;28;19913;-26
2022/05/17 04:21:14;;;;;;;;;;;;;;;;;;5056905;28;19909;-26
2022/05/17 04:23:41;;;;;;;;;;;;;;;;;;5055010;28;19986;-26
2022/05/17 04:26:07;;;;;;;;;;;;;;;;;;5056285;28;19917;-26
2022/05/17 04:28:33;;;;;;;;;;;;;;;;;;5055260;28;20271;-26
2022/05/17 04:33:51;;;;;;;;;;;;;;;;;;5058801;28;20312;-26
2022/05/17 04:36:19;;;;;;;;;;;;;;;;;;5057992;28;19912;-26
2022/05/17 04:38:46;;;;;;;;;;;;;;;;;;5057269;28;19909;-26
2022/05/17 04:41:13;;;;;;;;;;;;;;;;;;5058135;28;19940;-27
2022/05/17 04:43:40;;;;;;;;;;;;;;;;;;5058105;28;19912;-23
2022/05/17 04:46:07;;;;;;;;;;;;;;;;;;5056670;28;20268;-23
2022/05/17 04:48:35;;;;;;;;;;;;;;;;;;5058441;28;19952;-23
2022/05/17 04:51:02;;;;;;;;;;;;;;;;;;5058601;28;19908;-26
2022/05/17 04:53:29;;;;;;;;;;;;;;;;;;5057738;28;19913;-26
2022/05/17 04:55:57;;;;;;;;;;;;;;;;;;5057685;28;19909;-26
2022/05/17 04:58:25;;;;;;;;;;;;;;;;;;5057279;28;19975;-26
2022/05/17 05:00:54;;;;;;;;;;;;;;;;;;5057673;28;19920;-24
2022/05/17 05:03:25;;;;;;;;;;;;;;;;;;5058357;28;19916;-24
2022/05/17 05:05:52;;;;;;;;;;;;;;;;;;5057551;28;19909;-24
2022/05/17 05:08:21;;;;;;;;;;;;;;;;;;5057168;28;19966;-25
2022/05/17 05:10:49;;;;;;;;;;;;;;;;;;5057830;28;19913;-24
2022/05/17 05:13:16;;;;;;;;;;;;;;;;;;5055680;28;19953;-25
2022/05/17 05:15:47;;;;;;;;;;;;;;;;;;5057613;28;19923;-24
2022/05/17 05:18:13;;;;;;;;;;;;;;;;;;5057309;28;19968;-25
2022/05/17 05:23:31;;;;;;;;;;;;;;;;;;5057819;28;19923;-25
2022/05/17 05:25:59;;;;;;;;;;;;;;;;;;5058053;28;19913;-25
2022/05/17 05:28:25;;;;;;;;;;;;;;;;;;5057806;28;19920;-26
2022/05/17 05:30:52;;;;;;;;;;;;;;;;;;5057518;28;19913;-24
2022/05/17 05:33:20;;;;;;;;;;;;;;;;;;5057479;28;19913;-24
2022/05/17 05:35:46;;;;;;;;;;;;;;;;;;5054608;28;20339;-26
2022/05/17 05:38:13;;;;;;;;;;;;;;;;;;5054751;28;19935;-25
2022/05/17 05:40:41;;;;;;;;;;;;;;;;;;5054753;28;19928;-26
2022/05/17 05:43:09;;;;;;;;;;;;;;;;;;5055132;28;19920;-25
2022/05/17 05:45:37;;;;;;;;;;;;;;;;;;5055820;28;20016;-25
2022/05/17 05:48:05;;;;;;;;;;;;;;;;;;5056731;28;20240;-25
2022/05/17 05:50:33;;;;;;;;;;;;;;;;;;5057274;28;19913;-28
2022/05/17 05:53:00;;;;;;;;;;;;;;;;;;5056035;28;19952;-26
2022/05/17 05:55:29;;;;;;;;;;;;;;;;;;5057682;28;20004;-25
2022/05/17 05:57:57;;;;;;;;;;;;;;;;;;5057114;28;20288;-25
2022/05/17 06:00:24;;;;;;;;;;;;;;;;;;5055827;28;19951;-26
2022/05/17 06:03:02;;;;;;;;;;;;;;;;;;5056377;28;19988;-25
2022/05/17 06:05:30;;;;;;;;;;;;;;;;;;5056303;28;20367;-25
2022/05/17 06:07:59;;;;;;;;;;;;;;;;;;5057249;28;19936;-25
2022/05/17 06:10:27;;;;;;;;;;;;;;;;;;5055660;28;19924;-25
2022/05/17 06:13:00;;;;;;;;;;;;;;;;;;5054924;28;19909;-23
2022/05/17 06:15:28;;;;;;;;;;;;;;;;;;5056154;28;19924;-25
2022/05/17 06:18:01;;;;;;;;;;;;;;;;;;5053935;28;20363;-26
2022/05/17 06:20:29;;;;;;;;;;;;;;;;;;5054454;28;19921;-26
2022/05/17 06:22:56;;;;;;;;;;;;;;;;;;5054407;28;19913;-30
2022/05/17 06:25:27;;;;;;;;;;;;;;;;;;5055523;28;19948;-26
2022/05/17 06:27:55;;;;;;;;;;;;;;;;;;5054383;28;20308;-24
2022/05/17 06:30:23;;;;;;;;;;;;;;;;;;5054291;28;19956;-25
2022/05/17 06:32:51;;;;;;;;;;;;;;;;;;5054488;28;20313;-26
2022/05/17 06:35:23;;;;;;;;;;;;;;;;;;5054278;28;19959;-26
2022/05/17 06:37:53;;;;;;;;;;;;;;;;;;5055973;28;19923;-24
2022/05/17 06:40:31;;;;;;;;;;;;;;;;;;5056959;28;19921;-24
2022/05/17 06:43:03;;;;;;;;;;;;;;;;;;5056622;28;19913;-25
2022/05/17 06:48:27;;;;;;;;;;;;;;;;;;5061816;28;19923;-25
2022/05/17 06:50:55;;;;;;;;;;;;;;;;;;5058968;28;19936;-27
2022/05/17 06:53:23;;;;;;;;;;;;;;;;;;5059115;28;19912;-25
2022/05/17 06:55:51;;;;;;;;;;;;;;;;;;5059582;28;20000;-25
2022/05/17 06:58:18;;;;;;;;;;;;;;;;;;5060059;28;20223;-25
2022/05/17 07:00:48;;;;;;;;;;;;;;;;;;5061598;28;20267;-25
2022/05/17 07:03:22;;;;;;;;;;;;;;;;;;5059790;28;19924;-25
2022/05/17 07:05:55;;;;;;;;;;;;;;;;;;5059803;28;19913;-26
2022/05/17 07:08:30;;;;;;;;;;;;;;;;;;5060256;28;19982;-25
2022/05/17 07:13:45;;;;;;;;;;;;;;;;;;5060845;28;20024;-25
2022/05/17 07:16:15;;;;;;;;;;;;;;;;;;5060614;28;19982;-25
2022/05/17 07:18:47;;;;;;;;;;;;;;;;;;5060337;28;20353;-25
2022/05/17 07:21:22;;;;;;;;;;;;;;;;;;5060240;28;19921;-25
2022/05/17 07:23:51;;;;;;;;;;;;;;;;;;5060249;28;19924;-25
2022/05/17 07:26:22;;;;;;;;;;;;;;;;;;5059634;28;19971;-26
2022/05/17 07:28:52;;;;;;;;;;;;;;;;;;5058792;28;19909;-25
2022/05/17 07:34:21;;;;;;;;;;;;;;;;;;5060232;28;19924;-25
2022/05/17 07:36:53;;;;;;;;;;;;;;;;;;5058678;28;19978;-24
2022/05/17 07:39:26;;;;;;;;;;;;;;;;;;5059968;28;19928;-25
2022/05/17 07:41:58;;;;;;;;;;;;;;;;;;5060233;28;19919;-25
2022/05/17 07:44:27;;;;;;;;;;;;;;;;;;5059589;28;19944;-24
2022/05/17 07:47:05;;;;;;;;;;;;;;;;;;5058773;28;20280;-25
2022/05/17 07:49:42;;;;;;;;;;;;;;;;;;5058451;28;19913;-25
2022/05/17 07:52:14;;;;;;;;;;;;;;;;;;5060659;28;19909;-25
2022/05/17 07:54:43;;;;;;;;;;;;;;;;;;5059701;28;20011;-25
2022/05/17 07:57:10;;;;;;;;;;;;;;;;;;5059750;28;19928;-25
2022/05/17 07:59:41;;;;;;;;;;;;;;;;;;5058403;28;20007;-25
2022/05/17 08:02:18;;;;;;;;;;;;;;;;;;5059351;28;20343;-25
2022/05/17 08:04:50;;;;;;;;;;;;;;;;;;5058632;28;19920;-24
2022/05/17 08:07:22;;;;;;;;;;;;;;;;;;5059713;28;19978;-24
2022/05/17 08:09:50;;;;;;;;;;;;;;;;;;5059175;28;19924;-25
2022/05/17 08:12:21;;;;;;;;;;;;;;;;;;5059524;28;19932;-25
2022/05/17 08:14:53;;;;;;;;;;;;;;;;;;5059749;28;19909;-24
2022/05/17 08:17:23;;;;;;;;;;;;;;;;;;5058723;28;20193;-24
2022/05/17 08:22:43;;;;;;;;;;;;;;;;;;5059231;28;20022;-24
2022/05/17 08:28:06;;;;;;;;;;;;;;;;;;5059998;28;19924;-25
2022/05/17 08:30:34;;;;;;;;;;;;;;;;;;5058661;28;19920;-26
2022/05/17 08:33:26;;;;;;;;;;;;;;;;;;5055786;28;20007;-25
2022/05/17 08:36:03;;;;;;;;;;;;;;;;;;5054602;28;19908;-25
2022/05/17 08:38:32;;;;;;;;;;;;;;;;;;5055718;28;19924;-25
2022/05/17 08:41:03;;;;;;;;;;;;;;;;;;5055243;28;19963;-25
2022/05/17 08:46:33;;;;;;;;;;;;;;;;;;5055210;28;19923;-25
2022/05/17 08:48:59;;;;;;;;;;;;;;;;;;5054515;28;19923;-25
2022/05/17 08:51:25;;;;;;;;;;;;;;;;;;5053581;28;19909;-25
2022/05/17 08:53:52;;;;;;;;;;;;;;;;;;5054559;28;19922;-26
2022/05/17 08:56:18;;;;;;;;;;;;;;;;;;5054662;28;19919;-26
2022/05/17 08:58:44;;;;;;;;;;;;;;;;;;5054654;28;19913;-26
2022/05/17 09:01:11;;;;;;;;;;;;;;;;;;5054387;28;19917;-27
2022/05/17 09:03:38;;;;;;;;;;;;;;;;;;5054415;28;19913;-26
2022/05/17 09:06:04;;;;;;;;;;;;;;;;;;5054727;28;19909;-26
2022/05/17 09:08:30;;;;;;;;;;;;;;;;;;5054399;28;20008;-26
2022/05/17 09:10:57;;;;;;;;;;;;;;;;;;5053533;28;19909;-26
2022/05/17 09:13:24;;;;;;;;;;;;;;;;;;5054383;28;19913;-26
2022/05/17 09:15:51;;;;;;;;;;;;;;;;;;5054093;28;19924;-26
2022/05/17 09:18:28;;;;;;;;;;;;;;;;;;5053156;28;20248;-26
2022/05/17 09:20:54;;;;;;;;;;;;;;;;;;5052061;28;20442;-26
2022/05/17 09:23:22;;;;;;;;;;;;;;;;;;5054898;28;19913;-26
2022/05/17 09:25:51;;;;;;;;;;;;;;;;;;5053920;28;19925;-26
2022/05/17 09:28:25;;;;;;;;;;;;;;;;;;5057161;28;19928;-25
2022/05/17 09:33:46;;;;;;;;;;;;;;;;;;5059308;28;19923;-25
2022/05/17 09:36:21;;;;;;;;;;;;;;;;;;5056916;28;20411;-25
2022/05/17 09:38:57;;;;;;;;;;;;;;;;;;5058675;28;20014;-25
2022/05/17 09:41:28;;;;;;;;;;;;;;;;;;5058433;28;19913;-25
2022/05/17 09:43:55;;;;;;;;;;;;;;;;;;5056389;28;19913;-25
2022/05/17 09:46:23;;;;;;;;;;;;;;;;;;5056376;28;20016;-26
2022/05/17 09:54:24;;;;;;;;;;;;;;;;;;5057478;28;20014;-25
2022/05/17 09:56:52;;;;;;;;;;;;;;;;;;5056676;28;19913;-26
2022/05/17 09:59:21;;;;;;;;;;;;;;;;;;5056046;28;19924;-25
2022/05/17 10:01:53;;;;;;;;;;;;;;;;;;5056782;28;20246;-25
2022/05/17 10:04:24;;;;;;;;;;;;;;;;;;5055949;28;20000;-26
2022/05/17 10:06:56;;;;;;;;;;;;;;;;;;5056742;28;20316;-25
2022/05/17 10:09:39;;;;;;;;;;;;;;;;;;5057433;28;20308;-25
2022/05/17 10:12:11;;;;;;;;;;;;;;;;;;5058042;28;19912;-24
2022/05/17 10:14:48;;;;;;;;;;;;;;;;;;5057630;28;19952;-24
2022/05/17 10:17:19;;;;;;;;;;;;;;;;;;5056648;28;20240;-25
2022/05/17 10:19:47;;;;;;;;;;;;;;;;;;5055451;28;20276;-24
2022/05/17 10:22:15;;;;;;;;;;;;;;;;;;5055764;28;20248;-24
2022/05/17 10:27:34;;;;;;;;;;;;;;;;;;5055856;28;19924;-25
2022/05/17 10:30:19;;;;;;;;;;;;;;;;;;5057955;28;19924;-24
2022/05/17 10:32:51;;;;;;;;;;;;;;;;;;5057178;28;20312;-24
2022/05/17 10:35:21;;;;;;;;;;;;;;;;;;5056318;28;19913;-25
2022/05/17 10:37:52;;;;;;;;;;;;;;;;;;5056092;28;19920;-26
2022/05/17 10:40:24;;;;;;;;;;;;;;;;;;5056286;28;19912;-25
2022/05/17 10:59:49;;;;;;;;;;;;;;;;;;5053256;28;20441;-27
2022/05/17 11:02:16;;;;;;;;;;;;;;;;;;5053076;28;19913;-27
2022/05/17 11:04:59;;;;;;;;;;;;;;;;;;5053358;28;19909;-27
2022/05/17 11:07:35;;;;;;;;;;;;;;;;;;5051900;28;19912;-27
2022/05/17 11:10:03;;;;;;;;;;;;;;;;;;5053564;28;19931;-27
2022/05/17 11:12:32;;;;;;;;;;;;;;;;;;5053087;28;19994;-27
2022/05/17 11:15:17;;;;;;;;;;;;;;;;;;5052985;28;19963;-27
2022/05/17 11:17:52;;;;;;;;;;;;;;;;;;5051911;28;19909;-27
2022/05/17 11:20:21;;;;;;;;;;;;;;;;;;5050868;28;19960;-27
2022/05/17 11:23:03;;;;;;;;;;;;;;;;;;5053268;28;19939;-26
2022/05/17 11:28:24;;;;;;;;;;;;;;;;;;5301092;22;20010;-21
2022/05/17 11:31:00;;;;;;;;;;;;;;;;;;5075234;28;19921;-23
2022/05/17 11:36:18;;;;;;;;;;;;;;;;;;5085060;28;19970;-23
2022/05/17 11:39:12;;;;;;;;;;;;;;;;;;5085784;28;19908;-23
2022/05/17 11:41:47;;;;;;;;;;;;;;;;;;5085219;28;19924;-23
2022/05/17 11:49:50;;;;;;;;;;;;;;;;;;5049834;28;19925;-24
2022/05/17 11:52:20;;;;;;;;;;;;;;;;;;5059492;28;19967;-24
2022/05/17 11:54:55;;;;;;;;;;;;;;;;;;5059365;28;19912;-24
2022/05/17 11:57:25;;;;;;;;;;;;;;;;;;5060359;28;19913;-24
2022/05/17 12:02:56;;;;;;;;;;;;;;;;;;5510300;22;20326;-24
2022/05/17 12:05:48;;;;;;;;;;;;;;;;;;5060153;28;19932;-23
2022/05/17 12:08:14;;;;;;;;;;;;;;;;;;5056046;28;20374;-24
2022/05/17 12:10:40;;;;;;;;;;;;;;;;;;5056619;28;19976;-24
2022/05/17 12:13:06;;;;;;;;;;;;;;;;;;5056477;28;19920;-26
2022/05/17 12:15:32;;;;;;;;;;;;;;;;;;5055427;28;19943;-26
2022/05/17 12:17:59;;;;;;;;;;;;;;;;;;5056449;28;19924;-26
2022/05/17 12:20:26;;;;;;;;;;;;;;;;;;5056269;28;19912;-26
2022/05/17 12:22:58;;;;;;;;;;;;;;;;;;5056311;28;19919;-25
2022/05/17 12:28:23;;;;;;;;;;;;;;;;;;5064379;28;20012;-26
2022/05/17 12:30:59;;;;;;;;;;;;;;;;;;5062245;28;19924;-26
2022/05/17 12:33:29;;;;;;;;;;;;;;;;;;5063363;28;19917;-26
2022/05/17 12:47:32;;;;;;;;;;;;;;;;;;5479016;22;19990;-23
2022/05/17 12:55:49;;;;;;;;;;;;;;;;;;5075666;28;19923;-24
2022/05/17 12:58:18;;;;;;;;;;;;;;;;;;5074879;28;20003;-24
2022/05/17 13:00:45;;;;;;;;;;;;;;;;;;5075141;28;20023;-23
2022/05/17 13:03:12;;;;;;;;;;;;;;;;;;5075614;28;19934;-24
2022/05/17 13:05:42;;;;;;;;;;;;;;;;;;5074978;28;19991;-24
2022/05/17 13:08:21;;;;;;;;;;;;;;;;;;5076896;28;19912;-23
2022/05/17 13:10:49;;;;;;;;;;;;;;;;;;5078540;28;20412;-23
2022/05/17 13:13:25;;;;;;;;;;;;;;;;;;5079504;28;20419;-25
2022/05/17 13:15:59;;;;;;;;;;;;;;;;;;5060536;28;19915;-21
2022/05/17 13:18:25;;;;;;;;;;;;;;;;;;5076886;28;19913;-22
2022/05/17 13:20:58;;;;;;;;;;;;;;;;;;5057625;28;20295;-24
2022/05/17 13:23:24;;;;;;;;;;;;;;;;;;5075097;28;20230;-25
2022/05/17 13:25:51;;;;;;;;;;;;;;;;;;5075196;28;20358;-22
2022/05/17 13:28:17;;;;;;;;;;;;;;;;;;5057565;28;19916;-24
2022/05/17 13:30:47;;;;;;;;;;;;;;;;;;5077576;28;19916;-24
2022/05/17 13:33:15;;;;;;;;;;;;;;;;;;5077974;28;19938;-23
2022/05/17 13:35:42;;;;;;;;;;;;;;;;;;5076372;28;20263;-24
2022/05/17 13:38:12;;;;;;;;;;;;;;;;;;5076038;28;20327;-24
2022/05/17 13:40:38;;;;;;;;;;;;;;;;;;5075679;28;19970;-24
2022/05/17 13:43:06;;;;;;;;;;;;;;;;;;5074483;28;20450;-24
2022/05/17 13:45:34;;;;;;;;;;;;;;;;;;5075188;28;19916;-24
2022/05/17 13:48:00;;;;;;;;;;;;;;;;;;5074831;28;19912;-24
2022/05/17 13:50:27;;;;;;;;;;;;;;;;;;5075569;28;20004;-24
2022/05/17 13:52:53;;;;;;;;;;;;;;;;;;5075242;28;20023;-24
2022/05/17 13:55:21;;;;;;;;;;;;;;;;;;5074751;28;20317;-24
2022/05/17 13:57:47;;;;;;;;;;;;;;;;;;5074685;28;19973;-24
2022/05/17 14:00:14;;;;;;;;;;;;;;;;;;5074664;28;20193;-24
2022/05/17 14:02:40;;;;;;;;;;;;;;;;;;5075254;28;19987;-24
2022/05/17 14:05:07;;;;;;;;;;;;;;;;;;5075251;28;20353;-24
2022/05/17 14:07:33;;;;;;;;;;;;;;;;;;5074656;28;19929;-24
2022/05/17 14:12:43;;;;;;;;;;;;;;;;;;5074644;28;19973;-24
2022/05/17 14:15:09;;;;;;;;;;;;;;;;;;5074677;28;19913;-24
2022/05/17 14:17:36;;;;;;;;;;;;;;;;;;5074525;28;19977;-24
2022/05/17 14:20:03;;;;;;;;;;;;;;;;;;5074715;28;20250;-24
2022/05/17 14:22:29;;;;;;;;;;;;;;;;;;5075064;28;19931;-24
2022/05/17 14:24:56;;;;;;;;;;;;;;;;;;5074651;28;20011;-24
2022/05/17 14:27:22;;;;;;;;;;;;;;;;;;5074770;28;19913;-24
2022/05/17 14:29:49;;;;;;;;;;;;;;;;;;5074198;28;19948;-24
2022/05/17 14:32:15;;;;;;;;;;;;;;;;;;5074588;28;20345;-24
2022/05/17 14:34:41;;;;;;;;;;;;;;;;;;5074628;28;20045;-24
2022/05/17 14:37:07;;;;;;;;;;;;;;;;;;5074593;28;19999;-23
2022/05/17 14:39:33;;;;;;;;;;;;;;;;;;5056785;28;20350;-23
2022/05/17 14:41:59;;;;;;;;;;;;;;;;;;5074613;28;20246;-23
2022/05/17 14:44:25;;;;;;;;;;;;;;;;;;5074432;28;19923;-23
2022/05/17 14:46:51;;;;;;;;;;;;;;;;;;5056993;28;19908;-24
2022/05/17 14:49:18;;;;;;;;;;;;;;;;;;5074191;28;19928;-23
2022/05/17 14:51:43;;;;;;;;;;;;;;;;;;5074524;28;19923;-24
2022/05/17 14:54:10;;;;;;;;;;;;;;;;;;5074027;28;20286;-24
2022/05/17 14:56:36;;;;;;;;;;;;;;;;;;5074574;28;20235;-24
2022/05/17 14:59:02;;;;;;;;;;;;;;;;;;5074431;28;19909;-24
2022/05/17 15:01:28;;;;;;;;;;;;;;;;;;5073737;28;19923;-24
2022/05/17 15:03:56;;;;;;;;;;;;;;;;;;5073705;28;19991;-24
2022/05/17 15:06:22;;;;;;;;;;;;;;;;;;5073696;28;19916;-23
2022/05/17 15:08:48;;;;;;;;;;;;;;;;;;5076600;28;19962;-25
2022/05/17 15:14:07;;;;;;;;;;;;;;;;;;5077726;28;19963;-24
2022/05/17 15:16:40;;;;;;;;;;;;;;;;;;5062855;28;19938;-22
2022/05/17 15:22:11;;;;;;;;;;;;;;;;;;5081852;28;19966;-23
2022/05/17 15:27:37;;;;;;;;;;;;;;;;;;5078241;28;20219;-23
2022/05/17 15:30:18;;;;;;;;;;;;;;;;;;5081028;28;20232;-23
2022/05/17 15:35:44;;;;;;;;;;;;;;;;;;5082419;28;19962;-22
2022/05/17 15:38:12;;;;;;;;;;;;;;;;;;5083619;28;19981;-23
2022/05/17 15:40:39;;;;;;;;;;;;;;;;;;5085260;28;19967;-22
2022/05/17 15:43:09;;;;;;;;;;;;;;;;;;5082356;28;19935;-22
2022/05/17 15:45:36;;;;;;;;;;;;;;;;;;5065985;28;19912;-23
2022/05/17 15:53:54;;;;;;;;;;;;;;;;;;5083596;28;19992;-22
2022/05/17 15:56:31;;;;;;;;;;;;;;;;;;5078662;28;19924;-23
2022/05/17 15:58:58;;;;;;;;;;;;;;;;;;5079841;28;19908;-23
2022/05/17 16:01:28;;;;;;;;;;;;;;;;;;5082124;28;20357;-23
2022/05/17 16:04:54;;;;;;;;;;;;;;;;;;5061931;28;19912;-23
2022/05/17 16:06:41;;;;;;;;;;;;;;;;;;5076732;28;19955;-23
2022/05/17 16:09:07;;;;;;;;;;;;;;;;;;5076994;28;19912;-23
2022/05/17 16:11:48;;;;;;;;;;;;;;;;;;5076996;28;19966;-23
2022/05/17 16:14:15;;;;;;;;;;;;;;;;;;5077257;28;19999;-23
2022/05/17 16:16:41;;;;;;;;;;;;;;;;;;5076747;28;19922;-23
2022/05/17 16:19:07;;;;;;;;;;;;;;;;;;5076315;28;19991;-23
2022/05/17 16:21:33;;;;;;;;;;;;;;;;;;5076636;28;19973;-23
2022/05/17 16:24:00;;;;;;;;;;;;;;;;;;5076930;28;19909;-23
2022/05/17 16:26:26;;;;;;;;;;;;;;;;;;5076790;28;19912;-23
2022/05/17 16:28:52;;;;;;;;;;;;;;;;;;5076597;28;19924;-24
2022/05/17 16:31:18;;;;;;;;;;;;;;;;;;5077697;28;19923;-23
2022/05/17 16:33:48;;;;;;;;;;;;;;;;;;5061820;28;19908;-23
2022/05/17 16:36:15;;;;;;;;;;;;;;;;;;5079205;28;19919;-23
2022/05/17 16:38:43;;;;;;;;;;;;;;;;;;5079605;28;19928;-23
2022/05/17 16:41:14;;;;;;;;;;;;;;;;;;5061040;28;19920;-23
2022/05/17 16:43:41;;;;;;;;;;;;;;;;;;5060938;28;19912;-23
2022/05/17 16:46:08;;;;;;;;;;;;;;;;;;5079101;28;19915;-23
2022/05/17 16:48:35;;;;;;;;;;;;;;;;;;5078733;28;20007;-23
2022/05/17 16:51:02;;;;;;;;;;;;;;;;;;5061132;28;19923;-23
2022/05/17 16:53:29;;;;;;;;;;;;;;;;;;5079358;28;19908;-23
2022/05/17 16:55:56;;;;;;;;;;;;;;;;;;5078437;28;20278;-23
2022/05/17 16:58:23;;;;;;;;;;;;;;;;;;5078366;28;19908;-23
2022/05/17 17:00:52;;;;;;;;;;;;;;;;;;5079015;28;20019;-24
2022/05/17 17:03:19;;;;;;;;;;;;;;;;;;5077858;28;20298;-21
2022/05/17 17:05:46;;;;;;;;;;;;;;;;;;5060647;28;19919;-23
2022/05/17 17:08:13;;;;;;;;;;;;;;;;;;5078303;28;19919;-22
2022/05/17 17:10:40;;;;;;;;;;;;;;;;;;5078151;28;19919;-22
2022/05/17 17:13:09;;;;;;;;;;;;;;;;;;5060747;28;19920;-22
2022/05/17 17:15:37;;;;;;;;;;;;;;;;;;5078758;28;19974;-23
2022/05/17 17:18:04;;;;;;;;;;;;;;;;;;5077991;28;19970;-24
2022/05/17 17:20:31;;;;;;;;;;;;;;;;;;5078458;28;19924;-23
2022/05/17 17:22:59;;;;;;;;;;;;;;;;;;5078153;28;19940;-23
2022/05/17 17:25:26;;;;;;;;;;;;;;;;;;5077857;28;19908;-23
2022/05/17 17:27:53;;;;;;;;;;;;;;;;;;5077916;28;19912;-24
2022/05/17 17:30:20;;;;;;;;;;;;;;;;;;5077511;28;19908;-23
2022/05/17 17:38:18;;;;;;;;;;;;;;;;;;5078049;28;19936;-23
2022/05/17 17:40:45;;;;;;;;;;;;;;;;;;5077554;28;20022;-23
2022/05/17 17:43:14;;;;;;;;;;;;;;;;;;5076934;28;19912;-23
2022/05/17 17:45:43;;;;;;;;;;;;;;;;;;5077317;28;19909;-23
2022/05/17 17:48:11;;;;;;;;;;;;;;;;;;5076623;28;19916;-23
2022/05/17 17:50:38;;;;;;;;;;;;;;;;;;5059272;28;19990;-23
2022/05/17 17:53:05;;;;;;;;;;;;;;;;;;5077537;28;19991;-23
2022/05/17 17:55:32;;;;;;;;;;;;;;;;;;5076943;28;20304;-23
2022/05/17 17:58:00;;;;;;;;;;;;;;;;;;5077657;28;19921;-23
2022/05/17 18:00:26;;;;;;;;;;;;;;;;;;5059316;28;19920;-23
2022/05/17 18:02:53;;;;;;;;;;;;;;;;;;5076586;28;20259;-24
2022/05/17 18:05:22;;;;;;;;;;;;;;;;;;5077042;28;20255;-23
2022/05/17 18:07:49;;;;;;;;;;;;;;;;;;5076680;28;19920;-23
2022/05/17 18:10:16;;;;;;;;;;;;;;;;;;5077162;28;19913;-23
2022/05/17 18:12:44;;;;;;;;;;;;;;;;;;5077087;28;19996;-23
2022/05/17 18:15:11;;;;;;;;;;;;;;;;;;5076808;28;19958;-23
2022/05/17 18:17:40;;;;;;;;;;;;;;;;;;5076760;28;19991;-23
2022/05/17 18:20:07;;;;;;;;;;;;;;;;;;5076671;28;19916;-23
2022/05/17 18:25:18;;;;;;;;;;;;;;;;;;5079532;28;20302;-23
2022/05/17 18:27:48;;;;;;;;;;;;;;;;;;5079855;28;19912;-23
2022/05/17 18:30:26;;;;;;;;;;;;;;;;;;5079705;28;19947;-24
2022/05/17 18:32:59;;;;;;;;;;;;;;;;;;5080838;28;20331;-24
2022/05/17 18:35:32;;;;;;;;;;;;;;;;;;5081164;28;20008;-23
2022/05/17 18:38:02;;;;;;;;;;;;;;;;;;5080068;28;19991;-23
2022/05/17 18:48:57;;;;;;;;;;;;;;;;;;5080929;28;20350;-24
2022/05/17 18:51:22;;;;;;;;;;;;;;;;;;5063892;28;19919;-23
2022/05/17 18:53:48;;;;;;;;;;;;;;;;;;5080934;28;19908;-23
2022/05/17 18:56:15;;;;;;;;;;;;;;;;;;5080937;28;20023;-23
2022/05/17 18:58:41;;;;;;;;;;;;;;;;;;5080739;28;19913;-23
2022/05/17 19:01:06;;;;;;;;;;;;;;;;;;5063890;28;19927;-23
2022/05/17 19:03:33;;;;;;;;;;;;;;;;;;5063452;28;20331;-24
2022/05/17 19:05:59;;;;;;;;;;;;;;;;;;5081188;28;20002;-24